createdAt,value
2019-05-18T00:00:55.296Z,15.13
2019-05-18T00:03:22.625Z,15.63
2019-05-18T00:05:49.566Z,13.73
2019-05-18T00:08:16.635Z,13.60
2019-05-18T00:10:43.497Z,14.73
2019-05-18T00:13:10.480Z,15.30
2019-05-18T00:15:37.451Z,15.63
2019-05-18T00:18:04.772Z,13.20
2019-05-18T00:20:32.378Z,11.63
2019-05-18T00:22:59.398Z,16.90
2019-05-18T00:25:26.745Z,14.23
2019-05-18T00:27:54.689Z,13.80
2019-05-18T00:30:22.563Z,13.23
2019-05-18T00:32:49.820Z,13.17
2019-05-18T00:35:17.311Z,12.60
2019-05-18T00:37:44.669Z,12.93
2019-05-18T00:40:11.701Z,12.23
2019-05-18T00:42:38.875Z,12.70
2019-05-18T00:45:06.846Z,13.17
2019-05-18T00:47:41.296Z,14.93
2019-05-18T00:50:04.083Z,14.87
2019-05-18T00:52:32.700Z,11.63
2019-05-18T00:55:02.052Z,13.07
2019-05-18T00:57:29.359Z,13.87
2019-05-18T00:59:57.226Z,10.97
2019-05-18T01:02:24.265Z,13.23
2019-05-18T01:04:51.413Z,11.17
2019-05-18T01:07:18.175Z,13.10
2019-05-18T01:09:44.959Z,12.37
2019-05-18T01:12:11.922Z,12.57
2019-05-18T01:14:38.618Z,15.27
2019-05-18T01:17:05.623Z,14.27
2019-05-18T01:19:32.651Z,14.40
2019-05-18T01:22:01.003Z,13.63
2019-05-18T01:24:28.980Z,13.87
2019-05-18T01:26:56.696Z,12.93
2019-05-18T01:29:24.088Z,14.50
2019-05-18T01:31:51.040Z,12.57
2019-05-18T01:34:19.300Z,12.17
2019-05-18T01:36:46.728Z,13.83
2019-05-18T01:39:22.922Z,12.37
2019-05-18T01:41:50.999Z,12.03
2019-05-18T01:44:18.240Z,16.90
2019-05-18T01:46:45.253Z,11.13
2019-05-18T01:49:12.404Z,13.60
2019-05-18T01:51:39.267Z,12.30
2019-05-18T01:54:06.590Z,13.63
2019-05-18T01:56:34.188Z,14.07
2019-05-18T01:59:02.048Z,11.23
2019-05-18T02:01:29.123Z,11.23
2019-05-18T02:03:56.153Z,12.67
2019-05-18T02:06:23.050Z,12.17
2019-05-18T02:08:50.018Z,12.40
2019-05-18T02:11:17.954Z,12.67
2019-05-18T02:13:45.245Z,10.63
2019-05-18T02:16:12.075Z,12.57
2019-05-18T02:18:41.135Z,11.60
2019-05-18T02:21:07.822Z,12.37
2019-05-18T02:23:34.528Z,13.43
2019-05-18T02:26:01.393Z,13.73
2019-05-18T02:28:28.599Z,12.70
2019-05-18T02:30:55.556Z,11.87
2019-05-18T02:33:22.389Z,15.33
2019-05-18T02:35:49.560Z,10.93
2019-05-18T02:38:16.759Z,13.50
2019-05-18T02:40:44.402Z,11.23
2019-05-18T02:43:12.003Z,14.87
2019-05-18T02:45:38.906Z,11.73
2019-05-18T02:48:05.961Z,11.37
2019-05-18T02:50:33.780Z,12.10
2019-05-18T02:53:00.977Z,14.27
2019-05-18T02:55:28.349Z,12.90
2019-05-18T02:57:55.208Z,10.40
2019-05-18T03:00:24.286Z,13.97
2019-05-18T03:02:51.764Z,11.77
2019-05-18T03:05:18.963Z,12.27
2019-05-18T03:07:46.082Z,12.70
2019-05-18T03:10:13.076Z,10.70
2019-05-18T03:12:40.054Z,11.23
2019-05-18T03:15:07.351Z,11.50
2019-05-18T03:17:34.596Z,11.57
2019-05-18T03:20:01.939Z,13.57
2019-05-18T03:22:29.593Z,9.30
2019-05-18T03:24:56.473Z,13.73
2019-05-18T03:27:23.289Z,10.43
2019-05-18T03:29:51.164Z,10.33
2019-05-18T03:32:18.138Z,11.70
2019-05-18T03:34:45.177Z,11.17
2019-05-18T03:37:12.520Z,12.13
2019-05-18T03:39:40.003Z,10.33
2019-05-18T03:42:06.936Z,10.87
2019-05-18T03:44:34.023Z,13.10
2019-05-18T03:47:00.898Z,9.50
2019-05-18T03:49:28.042Z,10.57
2019-05-18T03:51:55.136Z,10.67
2019-05-18T03:54:22.969Z,11.30
2019-05-18T03:56:49.862Z,10.93
2019-05-18T03:59:16.923Z,12.10
2019-05-18T04:01:43.948Z,12.03
2019-05-18T04:04:10.867Z,11.50
2019-05-18T04:06:37.725Z,11.43
2019-05-18T04:09:05.199Z,11.80
2019-05-18T04:11:32.215Z,11.07
2019-05-18T04:13:59.671Z,12.90
2019-05-18T04:16:27.679Z,10.50
2019-05-18T04:18:54.686Z,9.60
2019-05-18T04:21:22.023Z,9.90
2019-05-18T04:23:49.026Z,11.77
2019-05-18T04:26:16.425Z,9.17
2019-05-18T04:28:43.798Z,8.87
2019-05-18T04:31:10.552Z,11.23
2019-05-18T04:33:37.521Z,8.13
2019-05-18T04:36:05.000Z,12.20
2019-05-18T04:38:32.164Z,10.10
2019-05-18T04:40:58.948Z,11.67
2019-05-18T04:43:25.669Z,9.67
2019-05-18T04:45:52.465Z,10.97
2019-05-18T04:48:19.337Z,10.07
2019-05-18T04:50:46.221Z,10.37
2019-05-18T04:53:16.435Z,11.63
2019-05-18T04:55:43.835Z,8.93
2019-05-18T04:58:11.713Z,9.93
2019-05-18T05:00:38.757Z,10.60
2019-05-18T05:03:06.173Z,10.37
2019-05-18T05:05:33.910Z,10.93
2019-05-18T05:08:01.041Z,9.43
2019-05-18T05:10:28.164Z,12.23
2019-05-18T05:12:55.175Z,10.87
2019-05-18T05:15:23.664Z,10.43
2019-05-18T05:17:51.211Z,10.37
2019-05-18T05:20:20.105Z,9.23
2019-05-18T05:22:47.334Z,9.70
2019-05-18T05:28:04.613Z,9.40
2019-05-18T05:30:32.006Z,8.43
2019-05-18T05:32:59.160Z,8.63
2019-05-18T05:35:27.079Z,11.57
2019-05-18T05:37:54.219Z,9.87
2019-05-18T05:40:21.576Z,10.27
2019-05-18T05:42:49.017Z,9.40
2019-05-18T05:45:16.100Z,8.90
2019-05-18T05:47:43.339Z,6.87
2019-05-18T05:50:10.360Z,7.10
2019-05-18T05:52:37.407Z,10.50
2019-05-18T05:55:04.296Z,8.13
2019-05-18T05:57:31.287Z,7.97
2019-05-18T05:59:58.228Z,7.30
2019-05-18T06:02:25.300Z,10.63
2019-05-18T06:04:52.258Z,9.33
2019-05-18T06:07:19.764Z,10.80
2019-05-18T06:09:46.979Z,8.57
2019-05-18T06:12:14.018Z,7.53
2019-05-18T06:14:41.120Z,10.33
2019-05-18T06:17:08.588Z,9.50
2019-05-18T06:19:35.722Z,8.50
2019-05-18T06:22:02.604Z,9.37
2019-05-18T06:24:30.702Z,10.53
2019-05-18T06:26:57.673Z,9.93
2019-05-18T06:29:25.201Z,10.27
2019-05-18T06:31:52.124Z,10.60
2019-05-18T06:34:19.005Z,14.10
2019-05-18T06:36:45.996Z,12.77
2019-05-18T06:39:13.536Z,9.67
2019-05-18T06:41:41.401Z,14.13
2019-05-18T06:44:08.267Z,11.93
2019-05-18T06:46:37.511Z,13.53
2019-05-18T06:49:04.458Z,14.07
2019-05-18T06:51:31.421Z,12.53
2019-05-18T06:53:58.684Z,14.37
2019-05-18T06:56:26.393Z,16.93
2019-05-18T06:58:53.783Z,14.50
2019-05-18T07:01:20.729Z,14.30
2019-05-18T07:03:48.493Z,14.47
2019-05-18T07:06:15.243Z,16.17
2019-05-18T07:08:42.492Z,17.60
2019-05-18T07:11:09.524Z,14.50
2019-05-18T07:13:36.521Z,18.10
2019-05-18T07:16:03.631Z,18.27
2019-05-18T07:18:30.709Z,14.90
2019-05-18T07:20:57.705Z,16.60
2019-05-18T07:23:24.592Z,17.80
2019-05-18T07:25:52.145Z,18.17
2019-05-18T07:28:19.872Z,17.87
2019-05-18T07:30:48.062Z,17.97
2019-05-18T07:33:15.623Z,19.07
2019-05-18T07:35:44.491Z,16.63
2019-05-18T07:38:12.087Z,18.83
2019-05-18T07:40:39.601Z,19.37
2019-05-18T07:43:07.375Z,21.13
2019-05-18T07:45:34.980Z,19.90
2019-05-18T07:48:02.444Z,14.27
2019-05-18T07:50:29.994Z,18.90
2019-05-18T07:52:58.786Z,21.20
2019-05-18T07:55:25.661Z,20.83
2019-05-18T07:57:53.086Z,19.87
2019-05-18T08:00:19.961Z,21.93
2019-05-18T08:02:47.091Z,20.67
2019-05-18T08:05:14.050Z,18.67
2019-05-18T08:07:42.014Z,20.57
2019-05-18T08:10:09.597Z,22.67
2019-05-18T08:12:36.594Z,19.53
2019-05-18T08:15:03.947Z,17.60
2019-05-18T08:17:31.097Z,22.47
2019-05-18T08:19:58.424Z,24.87
2019-05-18T08:22:25.464Z,22.03
2019-05-18T08:24:52.767Z,18.80
2019-05-18T08:27:20.062Z,17.90
2019-05-18T08:29:47.216Z,18.47
2019-05-18T08:32:14.879Z,18.17
2019-05-18T08:34:42.421Z,25.73
2019-05-18T08:37:09.539Z,20.77
2019-05-18T08:39:36.567Z,24.03
2019-05-18T08:42:03.543Z,21.63
2019-05-18T08:44:30.450Z,24.03
2019-05-18T08:46:57.295Z,19.33
2019-05-18T08:49:24.245Z,20.83
2019-05-18T08:51:51.882Z,21.93
2019-05-18T08:54:18.825Z,24.73
2019-05-18T08:56:45.940Z,19.57
2019-05-18T08:59:13.459Z,23.80
2019-05-18T09:01:40.306Z,20.62
2019-05-18T09:04:07.524Z,21.27
2019-05-18T09:06:34.853Z,20.37
2019-05-18T09:09:01.883Z,24.00
2019-05-18T09:11:28.912Z,23.47
2019-05-18T09:13:56.352Z,23.00
2019-05-18T09:16:23.648Z,25.20
2019-05-18T09:18:50.737Z,19.92
2019-05-18T09:21:17.676Z,19.30
2019-05-18T09:26:34.164Z,20.45
2019-05-18T09:29:02.087Z,23.00
2019-05-18T09:31:29.616Z,22.10
2019-05-18T09:33:57.058Z,23.73
2019-05-18T09:36:23.967Z,21.97
2019-05-18T09:38:51.059Z,26.48
2019-05-18T09:41:18.779Z,22.47
2019-05-18T09:43:45.840Z,21.47
2019-05-18T09:46:12.779Z,20.10
2019-05-18T09:48:39.731Z,23.40
2019-05-18T09:51:07.064Z,20.63
2019-05-18T09:53:35.789Z,22.25
2019-05-18T09:56:03.276Z,20.62
2019-05-18T09:58:30.155Z,23.35
2019-05-18T10:00:57.432Z,20.70
2019-05-18T10:03:24.421Z,20.48
2019-05-18T10:05:51.230Z,21.30
2019-05-18T10:08:18.142Z,18.60
2019-05-18T10:10:45.242Z,20.30
2019-05-18T10:13:12.165Z,23.20
2019-05-18T10:15:40.135Z,19.52
2019-05-18T10:18:09.010Z,21.75
2019-05-18T10:20:36.221Z,23.18
2019-05-18T10:23:12.280Z,22.15
2019-05-18T10:25:31.863Z,25.72
2019-05-18T10:27:58.801Z,23.18
2019-05-18T10:30:25.701Z,21.75
2019-05-18T10:32:52.767Z,20.88
2019-05-18T10:35:19.800Z,23.35
2019-05-18T10:37:47.198Z,22.40
2019-05-18T10:40:14.686Z,24.45
2019-05-18T10:42:42.052Z,24.00
2019-05-18T10:45:09.021Z,20.50
2019-05-18T10:47:36.002Z,22.60
2019-05-18T10:50:03.390Z,21.65
2019-05-18T10:52:30.245Z,24.37
2019-05-18T10:54:57.705Z,24.47
2019-05-18T10:57:24.587Z,22.42
2019-05-18T10:59:51.516Z,20.48
2019-05-18T11:02:19.808Z,23.00
2019-05-18T11:04:47.776Z,21.02
2019-05-18T11:07:14.965Z,21.30
2019-05-18T11:09:41.949Z,23.60
2019-05-18T11:12:10.711Z,22.85
2019-05-18T11:17:28.027Z,21.27
2019-05-18T11:19:54.972Z,23.80
2019-05-18T11:22:21.900Z,20.62
2019-05-18T11:24:49.152Z,19.30
2019-05-18T11:27:16.440Z,19.95
2019-05-18T11:29:43.324Z,20.25
2019-05-18T11:32:10.303Z,18.87
2019-05-18T11:34:37.195Z,22.20
2019-05-18T11:37:05.400Z,18.23
2019-05-18T11:39:32.498Z,20.23
2019-05-18T11:41:59.661Z,21.68
2019-05-18T11:44:26.722Z,20.70
2019-05-18T11:46:53.570Z,21.33
2019-05-18T11:49:20.602Z,18.10
2019-05-18T11:51:47.996Z,20.05
2019-05-18T11:54:15.791Z,17.90
2019-05-18T11:56:45.169Z,20.75
2019-05-18T11:59:15.588Z,20.90
2019-05-18T12:01:41.327Z,21.55
2019-05-18T12:04:08.098Z,16.37
2019-05-18T12:06:35.335Z,22.80
2019-05-18T12:09:02.858Z,19.77
2019-05-18T12:11:30.017Z,17.17
2019-05-18T12:13:57.044Z,22.02
2019-05-18T12:16:24.462Z,22.25
2019-05-18T12:18:51.418Z,19.07
2019-05-18T12:21:18.832Z,21.55
2019-05-18T12:23:45.967Z,15.70
2019-05-18T12:26:12.838Z,21.62
2019-05-18T12:28:39.834Z,21.15
2019-05-18T12:31:07.603Z,20.17
2019-05-18T12:33:35.403Z,20.12
2019-05-18T12:36:02.463Z,20.05
2019-05-18T12:38:29.560Z,20.57
2019-05-18T12:40:57.038Z,21.37
2019-05-18T12:43:24.260Z,20.88
2019-05-18T12:45:51.966Z,19.50
2019-05-18T12:48:19.579Z,19.35
2019-05-18T12:50:47.336Z,20.68
2019-05-18T12:53:17.661Z,21.52
2019-05-18T12:55:45.263Z,19.90
2019-05-18T12:58:12.553Z,20.40
2019-05-18T13:00:39.772Z,21.57
2019-05-18T13:03:07.425Z,22.07
2019-05-18T13:05:34.441Z,20.92
2019-05-18T13:08:01.223Z,21.52
2019-05-18T13:10:28.513Z,21.60
2019-05-18T13:12:56.390Z,21.77
2019-05-18T13:15:23.275Z,21.97
2019-05-18T13:17:54.140Z,19.42
2019-05-18T13:20:21.230Z,20.65
2019-05-18T13:22:48.938Z,22.50
2019-05-18T13:25:16.795Z,23.70
2019-05-18T13:27:44.308Z,22.55
2019-05-18T13:30:11.510Z,20.25
2019-05-18T13:32:38.825Z,22.00
2019-05-18T13:35:07.367Z,19.85
2019-05-18T13:37:34.557Z,20.68
2019-05-18T13:40:01.699Z,21.40
2019-05-18T13:42:29.834Z,22.05
2019-05-18T13:44:56.960Z,21.65
2019-05-18T13:47:24.434Z,21.93
2019-05-18T13:49:51.612Z,21.07
2019-05-18T13:52:20.777Z,22.13
2019-05-18T13:55:02.841Z,22.02
2019-05-18T13:57:20.360Z,21.68
2019-05-18T13:59:51.328Z,22.85
2019-05-18T14:02:20.352Z,21.65
2019-05-18T14:04:48.938Z,21.70
2019-05-18T14:07:15.971Z,24.55
2019-05-18T14:09:43.330Z,22.48
2019-05-18T14:15:00.755Z,21.07
2019-05-18T14:17:27.849Z,22.85
2019-05-18T14:19:55.169Z,23.10
2019-05-18T14:22:24.117Z,22.73
2019-05-18T14:24:51.878Z,23.42
2019-05-18T14:27:18.909Z,22.87
2019-05-18T14:29:45.964Z,20.70
2019-05-18T14:35:04.980Z,24.43
2019-05-18T14:40:24.327Z,23.73
2019-05-18T14:42:51.241Z,22.22
2019-05-18T14:45:18.561Z,21.23
2019-05-18T14:47:45.555Z,22.80
2019-05-18T14:50:12.463Z,25.75
2019-05-18T14:52:39.484Z,26.57
2019-05-18T14:55:06.801Z,21.90
2019-05-18T14:57:33.669Z,22.45
2019-05-18T15:00:02.344Z,23.00
2019-05-18T15:02:29.569Z,23.38
2019-05-18T15:04:57.100Z,22.10
2019-05-18T15:07:24.961Z,24.52
2019-05-18T15:09:52.291Z,22.62
2019-05-18T15:12:19.333Z,25.23
2019-05-18T15:14:48.279Z,23.90
2019-05-18T15:17:15.974Z,21.93
2019-05-18T15:19:43.152Z,21.02
2019-05-18T15:22:10.091Z,23.00
2019-05-18T15:24:37.015Z,25.37
2019-05-18T15:27:03.946Z,24.75
2019-05-18T15:29:35.546Z,22.05
2019-05-18T15:32:03.543Z,23.87
2019-05-18T15:34:30.499Z,23.80
2019-05-18T15:37:05.592Z,25.15
2019-05-18T15:39:32.990Z,24.32
2019-05-18T15:42:02.904Z,25.48
2019-05-18T15:44:30.682Z,23.22
2019-05-18T15:46:57.692Z,23.02
2019-05-18T15:49:25.769Z,24.82
2019-05-18T15:51:53.699Z,25.00
2019-05-18T15:54:21.452Z,24.18
2019-05-18T15:56:48.480Z,25.12
2019-05-18T15:59:15.606Z,28.12
2019-05-18T16:01:43.682Z,22.22
2019-05-18T16:04:12.130Z,25.27
2019-05-18T16:06:39.374Z,24.92
2019-05-18T16:09:06.697Z,23.70
2019-05-18T16:11:33.732Z,28.30
2019-05-18T16:14:00.903Z,26.68
2019-05-18T16:16:29.811Z,27.07
2019-05-18T16:18:57.846Z,26.75
2019-05-18T16:21:26.048Z,24.67
2019-05-18T16:23:54.244Z,28.75
2019-05-18T16:26:22.151Z,26.77
2019-05-18T16:28:49.391Z,26.73
2019-05-18T16:31:17.256Z,29.67
2019-05-18T16:33:44.397Z,26.45
2019-05-18T16:36:11.397Z,30.55
2019-05-18T16:38:49.629Z,26.15
2019-05-18T16:41:17.331Z,25.92
2019-05-18T16:43:44.468Z,27.50
2019-05-18T16:46:12.703Z,22.07
2019-05-18T16:48:40.897Z,26.65
2019-05-18T16:51:10.001Z,29.32
2019-05-18T16:53:37.027Z,26.07
2019-05-18T16:56:03.826Z,27.20
2019-05-18T16:58:30.644Z,27.35
2019-05-18T17:00:57.543Z,27.80
2019-05-18T17:03:24.513Z,26.75
2019-05-18T17:05:52.149Z,29.92
2019-05-18T17:08:18.852Z,24.02
2019-05-18T17:10:45.671Z,25.70
2019-05-18T17:13:12.510Z,26.50
2019-05-18T17:15:39.474Z,26.30
2019-05-18T17:18:07.010Z,25.08
2019-05-18T17:20:33.875Z,25.23
2019-05-18T17:23:01.152Z,29.07
2019-05-18T17:25:28.659Z,26.97
2019-05-18T17:27:55.830Z,26.12
2019-05-18T17:30:22.872Z,23.32
2019-05-18T17:32:49.809Z,25.32
2019-05-18T17:35:16.699Z,23.98
2019-05-18T17:37:43.517Z,24.75
2019-05-18T17:40:10.215Z,22.93
2019-05-18T17:42:36.951Z,24.35
2019-05-18T17:45:03.962Z,23.73
2019-05-18T17:47:30.850Z,20.30
2019-05-18T17:49:58.062Z,22.10
2019-05-18T17:52:24.872Z,23.80
2019-05-18T17:54:51.693Z,21.95
2019-05-18T17:57:18.916Z,21.42
2019-05-18T17:59:45.742Z,22.05
2019-05-18T18:02:12.907Z,21.23
2019-05-18T18:04:39.799Z,23.57
2019-05-18T18:07:06.612Z,21.40
2019-05-18T18:09:33.396Z,22.85
2019-05-18T18:14:49.472Z,20.80
2019-05-18T18:17:17.831Z,21.15
2019-05-18T18:19:47.320Z,26.30
2019-05-18T18:22:14.052Z,23.98
2019-05-18T18:24:41.109Z,20.55
2019-05-18T18:27:22.735Z,19.25
2019-05-18T18:29:37.591Z,20.95
2019-05-18T18:32:04.836Z,21.33
2019-05-18T18:34:32.845Z,23.02
2019-05-18T18:36:59.735Z,19.92
2019-05-18T18:39:27.932Z,20.27
2019-05-18T18:41:57.124Z,23.30
2019-05-18T18:47:03.047Z,25.17
2019-05-18T18:49:30.564Z,25.82
2019-05-18T18:51:58.939Z,23.20
2019-05-18T18:54:27.873Z,25.50
2019-05-18T18:56:55.053Z,23.52
2019-05-18T18:59:22.040Z,25.82
2019-05-18T19:01:48.928Z,24.60
2019-05-18T19:04:15.975Z,23.27
2019-05-18T19:06:44.808Z,23.77
2019-05-18T19:09:14.549Z,25.00
2019-05-18T19:11:43.198Z,20.72
2019-05-18T19:14:12.571Z,23.50
2019-05-18T19:16:40.403Z,22.13
2019-05-18T19:19:07.870Z,25.20
2019-05-18T19:21:35.435Z,23.25
2019-05-18T19:24:04.784Z,23.32
2019-05-18T19:26:33.098Z,21.33
2019-05-18T19:29:01.336Z,19.45
2019-05-18T19:31:28.765Z,23.32
2019-05-18T19:33:57.803Z,22.93
2019-05-18T19:36:26.522Z,21.55
2019-05-18T19:38:54.025Z,23.55
2019-05-18T19:41:21.002Z,26.07
2019-05-18T19:43:48.645Z,24.52
2019-05-18T19:46:23.708Z,25.30
2019-05-18T19:48:53.099Z,25.12
2019-05-18T19:51:21.253Z,23.30
2019-05-18T19:53:48.486Z,24.65
2019-05-18T19:56:15.438Z,24.32
2019-05-18T19:58:42.335Z,21.48
2019-05-18T20:01:10.252Z,27.15
2019-05-18T20:03:37.492Z,21.87
2019-05-18T20:06:07.367Z,22.50
2019-05-18T20:08:35.043Z,23.30
2019-05-18T20:11:02.205Z,20.40
2019-05-18T20:13:29.034Z,22.02
2019-05-18T20:15:57.663Z,25.92
2019-05-18T20:18:25.964Z,22.37
2019-05-18T20:20:53.308Z,21.97
2019-05-18T20:23:21.978Z,21.35
2019-05-18T20:25:48.998Z,25.90
2019-05-18T20:28:23.903Z,23.12
2019-05-18T20:30:45.643Z,21.00
2019-05-18T20:33:13.194Z,23.50
2019-05-18T20:35:40.581Z,24.23
2019-05-18T20:38:09.717Z,22.90
2019-05-18T20:40:37.345Z,23.30
2019-05-18T20:43:25.723Z,20.97
2019-05-18T20:45:57.161Z,25.88
2019-05-18T20:48:25.404Z,22.10
2019-05-18T20:50:53.072Z,25.40
2019-05-18T20:53:20.415Z,23.92
2019-05-18T20:55:48.283Z,22.25
2019-05-18T20:58:15.536Z,22.45
2019-05-18T21:00:45.270Z,23.80
2019-05-18T21:03:15.486Z,24.20
2019-05-18T21:05:44.533Z,24.75
2019-05-18T21:08:12.412Z,24.15
2019-05-18T21:10:40.336Z,22.82
2019-05-18T21:13:10.148Z,26.07
2019-05-18T21:15:39.765Z,28.77
2019-05-18T21:18:10.499Z,25.85
2019-05-18T21:20:40.004Z,26.53
2019-05-18T21:23:07.842Z,25.80
2019-05-18T21:25:34.998Z,22.60
2019-05-18T21:28:03.789Z,25.82
2019-05-18T21:30:31.272Z,23.38
2019-05-18T21:33:00.921Z,25.75
2019-05-18T21:38:07.457Z,22.60
2019-05-18T21:40:34.974Z,23.95
2019-05-18T21:43:02.346Z,24.90
2019-05-18T21:45:32.076Z,25.93
2019-05-18T21:47:59.540Z,26.10
2019-05-18T21:50:26.901Z,29.30
2019-05-18T21:52:54.683Z,21.17
2019-05-18T21:55:22.898Z,25.63
2019-05-18T21:57:50.868Z,24.90
2019-05-18T22:00:18.267Z,25.80
2019-05-18T22:02:45.796Z,22.98
2019-05-18T22:05:15.276Z,24.63
2019-05-18T22:07:43.734Z,25.75
2019-05-18T22:10:24.759Z,26.57
2019-05-18T22:12:42.123Z,26.57
2019-05-18T22:15:12.682Z,24.65
2019-05-18T22:17:58.662Z,24.52
2019-05-18T22:20:28.780Z,25.05
2019-05-18T22:22:57.264Z,30.50
2019-05-18T22:25:24.629Z,30.50
2019-05-18T22:27:53.145Z,31.40
2019-05-18T22:30:24.297Z,28.87
2019-05-18T22:32:53.557Z,29.30
2019-05-18T22:35:22.499Z,31.07
2019-05-18T22:37:55.607Z,27.30
2019-05-18T22:40:24.725Z,28.05
2019-05-18T22:42:53.175Z,27.45
2019-05-18T22:45:21.939Z,26.13
2019-05-18T22:47:50.209Z,28.30
2019-05-18T22:50:18.437Z,25.70
2019-05-18T22:52:46.874Z,29.82
2019-05-18T22:55:15.867Z,28.23
2019-05-18T22:57:46.255Z,26.50
2019-05-18T23:00:15.801Z,32.33
2019-05-18T23:02:43.165Z,27.62
2019-05-18T23:05:12.793Z,27.77
2019-05-18T23:07:42.237Z,27.58
2019-05-18T23:10:10.701Z,29.57
2019-05-18T23:12:40.710Z,30.50
2019-05-18T23:15:09.865Z,31.33
2019-05-18T23:17:36.976Z,27.30
2019-05-18T23:20:04.030Z,27.17
2019-05-18T23:22:31.951Z,29.40
2019-05-18T23:24:59.672Z,31.95
2019-05-18T23:27:27.686Z,31.10
2019-05-18T23:29:55.297Z,32.50
2019-05-18T23:32:24.762Z,27.05
2019-05-18T23:34:53.178Z,30.08
2019-05-18T23:37:21.698Z,26.13
2019-05-18T23:39:49.997Z,30.37
2019-05-18T23:42:18.436Z,27.60
2019-05-18T23:44:45.764Z,30.33
2019-05-18T23:47:13.387Z,29.13
2019-05-18T23:49:41.455Z,31.40
2019-05-18T23:52:09.122Z,36.83
2019-05-18T23:54:37.393Z,34.80
2019-05-18T23:57:08.056Z,28.60
2019-05-18T23:59:35.387Z,32.33
